createdAt,value
2022-12-28T00:01:31.055Z,3.50
2022-12-28T00:04:03.433Z,3.33
2022-12-28T00:06:29.956Z,3.42
2022-12-28T00:08:57.415Z,4.10
2022-12-28T00:11:30.830Z,3.45
2022-12-28T00:14:03.002Z,5.20
2022-12-28T00:16:32.781Z,3.05
2022-12-28T00:19:01.532Z,4.22
2022-12-28T00:21:28.946Z,4.13
2022-12-28T00:23:58.504Z,4.03
2022-12-28T00:26:27.356Z,3.55
2022-12-28T00:28:58.383Z,4.03
2022-12-28T00:31:33.292Z,3.05
2022-12-28T00:33:59.953Z,4.03
2022-12-28T00:37:08.300Z,3.45
2022-12-28T00:39:13.084Z,4.55
2022-12-28T00:41:45.047Z,3.03
2022-12-28T00:44:11.914Z,2.97
2022-12-28T00:46:38.768Z,3.65
2022-12-28T00:49:06.280Z,4.32
2022-12-28T00:51:32.984Z,3.05
2022-12-28T00:53:59.476Z,4.80
2022-12-28T00:56:26.004Z,4.18
2022-12-28T00:58:57.561Z,3.47
2022-12-28T01:01:25.218Z,4.20
2022-12-28T01:03:52.192Z,3.90
2022-12-28T01:06:21.129Z,4.20
2022-12-28T01:08:47.669Z,2.78
2022-12-28T01:11:24.120Z,3.17
2022-12-28T01:13:52.447Z,2.60
2022-12-28T01:16:26.724Z,3.60
2022-12-28T01:18:56.285Z,4.57
2022-12-28T01:21:25.194Z,3.90
2022-12-28T01:23:55.945Z,4.10
2022-12-28T01:26:23.174Z,2.80
2022-12-28T01:28:50.056Z,4.47
2022-12-28T01:31:18.472Z,4.43
2022-12-28T01:36:17.871Z,2.58
2022-12-28T01:41:16.280Z,4.68
2022-12-28T01:43:44.007Z,4.30
2022-12-28T01:46:15.201Z,3.28
2022-12-28T01:48:59.890Z,5.50
2022-12-28T01:51:30.232Z,2.97
2022-12-28T01:53:59.412Z,5.40
2022-12-28T01:56:27.458Z,4.53
2022-12-28T01:58:55.610Z,3.92
2022-12-28T02:01:22.318Z,5.35
2022-12-28T02:03:48.935Z,4.68
2022-12-28T02:06:15.751Z,4.90
2022-12-28T02:08:56.420Z,5.07
2022-12-28T02:13:52.513Z,3.60
2022-12-28T02:16:20.801Z,4.65
2022-12-28T02:18:48.321Z,4.53
2022-12-28T02:21:23.728Z,4.50
2022-12-28T02:24:12.044Z,5.03
2022-12-28T02:26:47.761Z,3.17
2022-12-28T02:29:32.538Z,4.70
2022-12-28T02:32:09.029Z,4.78
2022-12-28T02:34:51.391Z,4.38
2022-12-28T02:37:33.241Z,3.33
2022-12-28T02:40:07.807Z,5.20
2022-12-28T02:45:20.344Z,3.63
2022-12-28T02:48:06.843Z,4.55
2022-12-28T02:51:04.096Z,4.28
2022-12-28T02:53:58.155Z,4.68
2022-12-28T02:56:47.651Z,3.50
2022-12-28T02:59:48.072Z,5.25
2022-12-28T03:02:46.432Z,5.60
2022-12-28T03:06:08.542Z,4.45
2022-12-28T03:09:11.476Z,2.40
2022-12-28T03:11:53.986Z,4.57
2022-12-28T03:14:44.860Z,6.45
2022-12-28T03:17:33.067Z,6.15
2022-12-28T03:20:27.989Z,3.45
2022-12-28T03:23:15.136Z,4.97
2022-12-28T03:26:05.479Z,5.07
2022-12-28T03:28:53.309Z,5.28
2022-12-28T03:31:23.688Z,4.53
2022-12-28T03:33:53.665Z,6.47
2022-12-28T03:36:46.114Z,4.93
2022-12-28T03:39:40.646Z,7.43
2022-12-28T03:42:35.458Z,4.80
2022-12-28T03:45:10.014Z,6.38
2022-12-28T03:50:05.841Z,3.88
2022-12-28T03:52:33.068Z,5.43
2022-12-28T03:55:03.675Z,5.50
2022-12-28T03:57:30.182Z,6.57
2022-12-28T03:59:57.531Z,5.55
2022-12-28T04:02:24.203Z,4.72
2022-12-28T04:04:53.707Z,6.85
2022-12-28T04:07:20.245Z,6.85
2022-12-28T04:09:46.737Z,7.18
2022-12-28T04:12:14.563Z,7.72
2022-12-28T04:14:41.101Z,7.13
2022-12-28T04:17:07.800Z,7.47
2022-12-28T04:19:34.367Z,3.53
2022-12-28T04:22:00.899Z,6.05
2022-12-28T04:24:27.516Z,4.53
2022-12-28T04:26:54.217Z,3.95
2022-12-28T04:29:23.226Z,4.05
2022-12-28T04:31:49.725Z,7.10
2022-12-28T04:34:16.190Z,7.07
2022-12-28T04:36:47.101Z,7.28
2022-12-28T04:39:13.850Z,4.10
2022-12-28T04:41:40.470Z,6.45
2022-12-28T04:44:07.089Z,8.00
2022-12-28T04:46:33.708Z,8.10
2022-12-28T04:49:01.241Z,6.45
2022-12-28T04:51:29.037Z,6.65
2022-12-28T04:53:56.138Z,7.25
2022-12-28T04:56:23.947Z,7.63
2022-12-28T04:58:54.878Z,4.18
2022-12-28T05:01:21.681Z,5.15
2022-12-28T05:03:55.136Z,4.63
2022-12-28T05:06:24.294Z,4.57
2022-12-28T05:08:51.389Z,6.13
2022-12-28T05:11:23.826Z,4.65
2022-12-28T05:13:50.676Z,5.47
2022-12-28T05:16:20.152Z,5.60
2022-12-28T05:18:46.708Z,5.28
2022-12-28T05:21:16.738Z,3.85
2022-12-28T05:23:43.624Z,6.90
2022-12-28T05:26:13.498Z,3.78
2022-12-28T05:28:40.486Z,6.43
2022-12-28T05:31:10.998Z,5.85
2022-12-28T05:33:38.186Z,6.63
2022-12-28T05:36:16.669Z,7.50
2022-12-28T05:38:43.910Z,4.80
2022-12-28T05:41:16.602Z,5.05
2022-12-28T05:43:43.704Z,8.30
2022-12-28T05:46:13.087Z,5.43
2022-12-28T05:48:41.694Z,6.05
2022-12-28T05:51:10.858Z,4.93
2022-12-28T05:53:38.226Z,7.47
2022-12-28T05:56:14.348Z,6.00
2022-12-28T05:58:45.599Z,6.43
2022-12-28T06:01:18.190Z,6.55
2022-12-28T06:03:46.156Z,2.97
2022-12-28T06:06:18.344Z,6.03
2022-12-28T06:08:46.907Z,6.07
2022-12-28T06:11:18.806Z,4.15
2022-12-28T06:13:46.388Z,7.18
2022-12-28T06:16:16.638Z,6.32
2022-12-28T06:18:44.022Z,6.72
2022-12-28T06:22:07.905Z,7.15
2022-12-28T06:24:34.462Z,7.32
2022-12-28T06:27:01.089Z,5.05
2022-12-28T06:29:27.652Z,6.32
2022-12-28T06:31:54.749Z,6.10
2022-12-28T06:34:21.278Z,7.22
2022-12-28T06:36:52.528Z,6.57
2022-12-28T06:39:18.984Z,3.75
2022-12-28T06:41:45.797Z,5.57
2022-12-28T06:44:13.787Z,5.75
2022-12-28T06:46:40.770Z,5.28
2022-12-28T06:49:08.157Z,4.13
2022-12-28T06:51:38.539Z,5.93
2022-12-28T06:54:05.436Z,6.85
2022-12-28T06:56:34.532Z,5.00
2022-12-28T06:59:03.685Z,6.95
2022-12-28T07:01:36.613Z,7.65
2022-12-28T07:04:04.695Z,4.75
2022-12-28T07:06:36.547Z,8.65
2022-12-28T07:09:07.033Z,7.25
2022-12-28T07:11:33.644Z,5.97
2022-12-28T07:14:00.292Z,4.90
2022-12-28T07:18:55.405Z,8.48
2022-12-28T07:21:27.844Z,7.50
2022-12-28T07:23:55.479Z,9.55
2022-12-28T07:26:27.620Z,8.05
2022-12-28T07:28:56.259Z,6.57
2022-12-28T07:31:28.692Z,9.75
2022-12-28T07:33:56.772Z,8.10
2022-12-28T07:36:25.623Z,8.07
2022-12-28T07:38:52.906Z,8.20
2022-12-28T07:41:32.784Z,8.27
2022-12-28T07:44:00.080Z,7.60
2022-12-28T07:46:32.875Z,9.48
2022-12-28T07:49:00.576Z,8.68
2022-12-28T07:51:29.680Z,5.72
2022-12-28T07:53:58.040Z,9.80
2022-12-28T07:58:53.897Z,5.40
2022-12-28T08:01:23.094Z,7.47
2022-12-28T08:03:53.631Z,8.05
2022-12-28T08:06:22.989Z,5.80
2022-12-28T08:08:52.864Z,8.93
2022-12-28T08:11:23.359Z,7.10
2022-12-28T08:13:54.584Z,6.75
2022-12-28T08:16:22.390Z,6.32
2022-12-28T08:18:50.120Z,7.35
2022-12-28T08:21:31.994Z,7.90
2022-12-28T08:23:59.216Z,5.68
2022-12-28T08:26:32.121Z,7.97
2022-12-28T08:29:01.707Z,7.82
2022-12-28T08:31:30.632Z,6.95
2022-12-28T08:33:58.852Z,7.40
2022-12-28T08:36:26.049Z,6.60
2022-12-28T08:38:53.077Z,6.55
2022-12-28T08:41:24.987Z,7.05
2022-12-28T08:43:53.381Z,7.38
2022-12-28T08:48:49.712Z,6.88
2022-12-28T08:51:19.240Z,9.30
2022-12-28T08:53:46.411Z,7.75
2022-12-28T08:56:25.523Z,6.95
2022-12-28T08:58:52.623Z,3.75
2022-12-28T09:01:33.557Z,5.55
2022-12-28T09:04:02.674Z,6.35
2022-12-28T09:06:33.614Z,7.40
2022-12-28T09:09:08.546Z,6.22
2022-12-28T09:11:36.738Z,4.70
2022-12-28T09:14:05.251Z,5.80
2022-12-28T09:16:32.450Z,5.88
2022-12-28T09:19:01.280Z,5.65
2022-12-28T09:21:30.773Z,6.78
2022-12-28T09:23:57.672Z,7.78
2022-12-28T09:26:26.953Z,7.45
2022-12-28T09:28:59.081Z,6.78
2022-12-28T09:31:28.005Z,3.80
2022-12-28T09:36:47.665Z,4.07
2022-12-28T09:39:17.638Z,6.45
2022-12-28T09:41:57.776Z,3.70
2022-12-28T09:44:32.184Z,6.82
2022-12-28T09:47:17.589Z,3.40
2022-12-28T09:50:18.746Z,5.35
2022-12-28T09:53:15.244Z,5.90
2022-12-28T09:55:52.905Z,2.63
2022-12-28T09:58:20.773Z,5.60
2022-12-28T10:00:50.561Z,4.13
2022-12-28T10:03:22.035Z,4.88
2022-12-28T10:05:50.980Z,5.03
2022-12-28T10:08:20.935Z,5.25
2022-12-28T10:10:49.429Z,3.25
2022-12-28T10:13:53.539Z,4.40
2022-12-28T10:16:21.042Z,5.05
2022-12-28T10:18:49.140Z,5.43
2022-12-28T10:21:30.090Z,4.78
2022-12-28T10:26:47.861Z,5.57
2022-12-28T10:29:21.322Z,3.15
2022-12-28T10:32:14.551Z,4.93
2022-12-28T10:35:12.272Z,5.53
2022-12-28T10:37:44.549Z,4.40
2022-12-28T10:40:26.265Z,4.03
2022-12-28T10:42:55.701Z,3.15
2022-12-28T10:45:32.692Z,3.20
2022-12-28T10:47:59.280Z,4.63
2022-12-28T10:51:00.329Z,4.28
2022-12-28T10:53:48.166Z,4.60
2022-12-28T10:56:14.921Z,5.00
2022-12-28T10:58:46.598Z,4.78
2022-12-28T11:01:13.242Z,4.10
2022-12-28T11:03:42.631Z,4.22
2022-12-28T11:06:21.266Z,4.63
2022-12-28T11:09:31.983Z,3.72
2022-12-28T11:12:25.714Z,3.58
2022-12-28T11:14:53.128Z,3.65
2022-12-28T11:17:24.288Z,2.92
2022-12-28T11:19:57.436Z,3.88
2022-12-28T11:22:27.248Z,2.05
2022-12-28T11:24:54.448Z,3.55
2022-12-28T11:27:23.373Z,3.40
2022-12-28T11:29:52.712Z,3.72
2022-12-28T11:32:25.624Z,4.03
2022-12-28T11:34:54.755Z,4.68
2022-12-28T11:37:21.548Z,4.00
2022-12-28T11:39:51.789Z,3.50
2022-12-28T11:42:39.408Z,4.22
2022-12-28T11:45:15.003Z,4.75
2022-12-28T11:47:41.953Z,4.47
2022-12-28T11:50:39.926Z,4.25
2022-12-28T11:53:44.428Z,2.78
2022-12-28T11:56:13.103Z,3.35
2022-12-28T11:58:39.498Z,3.88
2022-12-28T12:01:10.021Z,2.40
2022-12-28T12:03:58.560Z,3.97
2022-12-28T12:06:43.359Z,3.25
2022-12-28T12:09:21.961Z,3.97
2022-12-28T12:11:50.931Z,2.33
2022-12-28T12:14:30.157Z,1.45
2022-12-28T12:17:05.175Z,1.17
2022-12-28T12:19:36.069Z,1.98
2022-12-28T12:22:10.455Z,2.00
2022-12-28T12:24:45.981Z,2.35
2022-12-28T12:27:18.628Z,1.75
2022-12-28T12:29:57.063Z,1.60
2022-12-28T12:32:42.353Z,1.70
2022-12-28T12:35:14.683Z,1.52
2022-12-28T12:38:01.567Z,2.22
2022-12-28T12:40:31.465Z,1.10
2022-12-28T12:43:22.277Z,1.75
2022-12-28T12:46:14.145Z,1.48
2022-12-28T12:48:56.839Z,2.10
2022-12-28T12:51:47.042Z,1.92
2022-12-28T12:54:36.784Z,2.20
2022-12-28T12:57:19.633Z,1.30
2022-12-28T13:00:11.329Z,1.88
2022-12-28T13:02:59.681Z,2.92
2022-12-28T13:05:28.746Z,2.90
2022-12-28T13:07:58.142Z,2.83
2022-12-28T13:10:36.607Z,2.08
2022-12-28T13:13:05.063Z,2.10
2022-12-28T13:15:32.366Z,2.65
2022-12-28T13:18:18.199Z,2.45
2022-12-28T13:21:10.410Z,2.13
2022-12-28T13:23:44.950Z,2.20
2022-12-28T13:26:14.712Z,2.72
2022-12-28T13:28:51.965Z,2.90
2022-12-28T13:31:22.408Z,2.25
2022-12-28T13:33:56.374Z,2.53
2022-12-28T13:36:22.883Z,2.30
2022-12-28T13:39:04.106Z,3.13
2022-12-28T13:41:33.831Z,2.30
2022-12-28T13:44:29.720Z,2.28
2022-12-28T13:47:04.618Z,2.65
2022-12-28T13:49:41.598Z,2.45
2022-12-28T13:52:13.191Z,2.50
2022-12-28T13:54:43.587Z,2.60
2022-12-28T13:57:45.344Z,2.83
2022-12-28T14:00:01.911Z,3.00
2022-12-28T14:02:28.938Z,2.90
2022-12-28T14:04:56.022Z,2.95
2022-12-28T14:07:27.666Z,2.22
2022-12-28T14:09:54.722Z,2.95
2022-12-28T14:12:21.803Z,3.22
2022-12-28T14:14:49.810Z,3.00
2022-12-28T14:17:16.813Z,2.80
2022-12-28T14:19:44.453Z,2.50
2022-12-28T14:22:34.516Z,3.03
2022-12-28T14:25:04.721Z,3.00
2022-12-28T14:27:36.904Z,2.45
2022-12-28T14:30:07.122Z,4.00
2022-12-28T14:35:28.049Z,3.25
2022-12-28T14:37:57.404Z,2.38
2022-12-28T14:40:34.587Z,1.45
2022-12-28T14:43:17.875Z,2.67
2022-12-28T14:46:05.095Z,2.70
2022-12-28T14:48:40.467Z,2.10
2022-12-28T14:54:22.009Z,1.52
2022-12-28T14:56:58.598Z,1.83
2022-12-28T14:59:29.522Z,2.42
2022-12-28T15:01:56.342Z,2.05
2022-12-28T15:04:38.898Z,2.25
2022-12-28T15:07:08.282Z,1.75
2022-12-28T15:09:35.664Z,1.63
2022-12-28T15:12:11.595Z,1.45
2022-12-28T15:14:38.642Z,2.20
2022-12-28T15:17:09.938Z,2.92
2022-12-28T15:19:36.930Z,2.28
2022-12-28T15:22:03.595Z,2.33
2022-12-28T15:24:33.862Z,2.60
2022-12-28T15:27:01.873Z,1.70
2022-12-28T15:29:55.574Z,2.40
2022-12-28T15:32:15.331Z,2.90
2022-12-28T15:34:41.920Z,1.70
2022-12-28T15:37:08.564Z,2.15
2022-12-28T15:39:35.045Z,2.10
2022-12-28T15:42:01.999Z,2.38
2022-12-28T15:44:28.551Z,2.17
2022-12-28T15:46:55.082Z,1.85
2022-12-28T15:49:21.541Z,2.17
2022-12-28T15:51:48.360Z,2.40
2022-12-28T15:54:14.859Z,1.98
2022-12-28T15:56:42.513Z,3.50
2022-12-28T15:59:14.316Z,2.38
2022-12-28T16:01:43.904Z,2.72
2022-12-28T16:04:10.677Z,2.25
2022-12-28T16:06:43.895Z,1.75
2022-12-28T16:09:11.958Z,2.33
2022-12-28T16:11:38.428Z,3.00
2022-12-28T16:14:07.006Z,2.20
2022-12-28T16:16:39.546Z,2.67
2022-12-28T16:19:07.082Z,2.90
2022-12-28T16:21:34.164Z,2.28
2022-12-28T16:24:00.648Z,2.72
2022-12-28T16:26:27.902Z,1.80
2022-12-28T16:28:54.643Z,2.25
2022-12-28T16:31:29.197Z,2.92
2022-12-28T16:34:08.109Z,2.78
2022-12-28T16:36:37.438Z,2.60
2022-12-28T16:39:06.678Z,2.85
2022-12-28T16:41:36.849Z,1.27
2022-12-28T16:44:12.421Z,2.28
2022-12-28T16:46:38.998Z,1.30
2022-12-28T16:49:05.723Z,2.30
2022-12-28T16:51:32.372Z,2.72
2022-12-28T16:53:58.925Z,2.47
2022-12-28T16:56:25.471Z,2.03
2022-12-28T16:58:56.327Z,2.75
2022-12-28T17:01:23.170Z,2.22
2022-12-28T17:03:50.430Z,2.25
2022-12-28T17:06:17.484Z,2.17
2022-12-28T17:08:47.538Z,2.70
2022-12-28T17:11:14.034Z,2.45
2022-12-28T17:13:40.691Z,1.58
2022-12-28T17:16:08.335Z,1.98
2022-12-28T17:18:35.699Z,2.28
2022-12-28T17:21:06.658Z,2.20
2022-12-28T17:23:33.832Z,2.08
2022-12-28T17:26:00.333Z,2.25
2022-12-28T17:28:26.910Z,2.22
2022-12-28T17:31:14.275Z,2.28
2022-12-28T17:33:45.725Z,2.47
2022-12-28T17:36:12.541Z,2.38
2022-12-28T17:38:39.098Z,2.08
2022-12-28T17:41:15.299Z,3.28
2022-12-28T17:43:49.355Z,3.25
2022-12-28T17:46:16.490Z,2.90
2022-12-28T17:48:43.158Z,2.95
2022-12-28T17:51:11.588Z,3.60
2022-12-28T17:53:41.432Z,2.92
2022-12-28T17:56:10.935Z,2.95
2022-12-28T17:58:37.798Z,2.15
2022-12-28T18:01:16.675Z,2.80
2022-12-28T18:03:43.351Z,2.80
2022-12-28T18:06:10.145Z,3.20
2022-12-28T18:08:36.580Z,2.83
2022-12-28T18:11:08.725Z,1.70
2022-12-28T18:13:35.339Z,3.40
2022-12-28T18:16:04.345Z,2.20
2022-12-28T18:18:31.218Z,3.58
2022-12-28T18:21:03.862Z,3.00
2022-12-28T18:23:31.023Z,3.95
2022-12-28T18:26:26.678Z,3.22
2022-12-28T18:28:56.829Z,2.95
2022-12-28T18:31:25.182Z,2.45
2022-12-28T18:33:51.857Z,2.22
2022-12-28T18:36:18.820Z,2.28
2022-12-28T18:38:46.657Z,3.40
2022-12-28T18:41:16.054Z,1.63
2022-12-28T18:43:43.299Z,1.70
2022-12-28T18:46:10.563Z,2.33
2022-12-28T18:48:39.742Z,3.30
2022-12-28T18:51:17.017Z,2.10
2022-12-28T18:53:44.094Z,2.63
2022-12-28T18:56:13.413Z,3.05
2022-12-28T18:58:41.464Z,2.58
2022-12-28T19:04:07.756Z,2.20
2022-12-28T19:06:34.985Z,2.90
2022-12-28T19:09:02.328Z,2.88
2022-12-28T19:11:29.069Z,3.58
2022-12-28T19:13:56.060Z,3.35
2022-12-28T19:16:30.261Z,3.20
2022-12-28T19:22:38.908Z,4.40
2022-12-28T19:25:06.135Z,4.63
2022-12-28T19:27:32.588Z,5.82
2022-12-28T19:29:59.131Z,5.07
2022-12-28T19:32:25.644Z,4.47
2022-12-28T19:34:53.432Z,4.68
2022-12-28T19:37:25.990Z,4.75
2022-12-28T19:39:57.650Z,4.80
2022-12-28T19:42:24.485Z,4.63
2022-12-28T19:44:50.989Z,3.97
2022-12-28T19:47:17.569Z,6.05
2022-12-28T19:49:44.185Z,4.30
2022-12-28T19:52:10.667Z,5.18
2022-12-28T19:54:37.656Z,5.57
2022-12-28T19:57:04.246Z,5.75
2022-12-28T19:59:30.857Z,5.78
2022-12-28T20:01:57.429Z,6.97
2022-12-28T20:04:27.030Z,6.93
2022-12-28T20:06:53.516Z,5.72
2022-12-28T20:09:19.950Z,5.18
2022-12-28T20:11:46.655Z,4.95
2022-12-28T20:14:18.122Z,5.53
2022-12-28T20:16:51.261Z,4.65
2022-12-28T20:19:17.867Z,3.58
2022-12-28T20:21:51.490Z,4.35
2022-12-28T20:24:19.918Z,3.92
2022-12-28T20:26:46.655Z,5.55
2022-12-28T20:29:16.200Z,3.80
2022-12-28T20:31:48.096Z,3.78
2022-12-28T20:34:14.806Z,3.92
2022-12-28T20:36:41.691Z,2.38
2022-12-28T20:39:08.264Z,2.70
2022-12-28T20:41:56.250Z,4.57
2022-12-28T20:44:32.444Z,3.42
2022-12-28T20:47:00.033Z,4.88
2022-12-28T20:49:27.921Z,4.60
2022-12-28T20:51:57.673Z,3.90
2022-12-28T20:54:29.218Z,4.32
2022-12-28T20:56:58.030Z,4.63
2022-12-28T20:59:29.775Z,4.88
2022-12-28T21:01:56.609Z,3.88
2022-12-28T21:04:24.716Z,4.20
2022-12-28T21:09:25.577Z,3.67
2022-12-28T21:11:52.433Z,2.45
2022-12-28T21:14:21.219Z,3.80
2022-12-28T21:16:47.855Z,3.40
2022-12-28T21:19:18.802Z,3.38
2022-12-28T21:21:51.232Z,2.33
2022-12-28T21:24:17.832Z,3.63
2022-12-28T21:26:44.570Z,3.35
2022-12-28T21:29:11.184Z,3.22
2022-12-28T21:31:37.818Z,3.25
2022-12-28T21:34:08.653Z,1.80
2022-12-28T21:36:47.286Z,2.90
2022-12-28T21:39:14.262Z,2.60
2022-12-28T21:41:49.909Z,3.20
2022-12-28T21:44:19.933Z,2.67
2022-12-28T21:46:50.705Z,2.75
2022-12-28T21:49:18.369Z,2.30
2022-12-28T21:51:47.651Z,2.53
2022-12-28T21:54:15.346Z,2.50
2022-12-28T21:56:45.601Z,3.58
2022-12-28T21:59:13.033Z,2.70
2022-12-28T22:02:05.497Z,2.58
2022-12-28T22:05:00.246Z,3.17
2022-12-28T22:07:30.170Z,3.22
2022-12-28T22:10:15.273Z,2.72
2022-12-28T22:12:41.825Z,2.42
2022-12-28T22:15:35.754Z,2.67
2022-12-28T22:19:01.414Z,2.90
2022-12-28T22:21:09.238Z,2.35
2022-12-28T22:23:35.852Z,3.05
2022-12-28T22:26:03.144Z,2.55
2022-12-28T22:28:30.015Z,2.17
2022-12-28T22:30:56.503Z,2.45
2022-12-28T22:33:23.047Z,1.25
2022-12-28T22:35:56.719Z,3.10
2022-12-28T22:38:23.334Z,2.05
2022-12-28T22:40:57.679Z,1.17
2022-12-28T22:43:24.199Z,2.15
2022-12-28T22:45:50.890Z,2.35
2022-12-28T22:48:17.451Z,1.75
2022-12-28T22:50:43.980Z,1.88
2022-12-28T22:53:13.630Z,4.50
2022-12-28T22:55:40.112Z,3.20
2022-12-28T22:58:16.951Z,4.40
2022-12-28T23:00:46.274Z,4.40
2022-12-28T23:03:21.202Z,4.78
2022-12-28T23:05:57.655Z,3.78
2022-12-28T23:08:24.397Z,3.88
2022-12-28T23:11:00.163Z,3.78
2022-12-28T23:13:32.413Z,3.65
2022-12-28T23:16:01.535Z,4.80
2022-12-28T23:18:48.274Z,4.88
2022-12-28T23:21:41.557Z,3.05
2022-12-28T23:24:33.159Z,2.83
2022-12-28T23:27:18.656Z,4.35
2022-12-28T23:29:45.820Z,3.40
2022-12-28T23:32:13.046Z,4.35
2022-12-28T23:34:39.613Z,3.80
2022-12-28T23:37:06.324Z,3.80
2022-12-28T23:39:33.116Z,2.72
2022-12-28T23:41:59.581Z,2.53
2022-12-28T23:44:27.055Z,3.20
2022-12-28T23:46:58.938Z,3.42
2022-12-28T23:49:26.660Z,2.28
2022-12-28T23:51:53.499Z,3.28
2022-12-28T23:54:20.537Z,3.00
2022-12-28T23:56:48.808Z,2.42
